RJTT/HND METAR and TAF weather

Enter ICAO airport designator
Station Type Date Time Source
RJTT METAR 2018/12/19 09:30 UTC NOAA

RJTT 190930Z 24012KT 190V250 9999 FEW030 12/M01 Q1013 NOSIG RMK 1CU030 A2993


Station Type Date Time Source
RJTT Decoded METAR 2018/12/19 09:30 UTC NOAA

Tokyo International Airport, Japan (RJTT) 35-33N 139-47E 8M
Dec 19, 2018 - 04:30 AM EST / 2018.12.19 0930 UTC
Wind: from the WSW (240 degrees) at 14 MPH (12 KT) (direction variable):0
Visibility: greater than 7 mile(s):0
Sky conditions: mostly clear
Temperature: 53 F (12 C)
Dew Point: 30 F (-1 C)
Relative Humidity: 40%
Pressure (altimeter): 29.91 in. Hg (1013 hPa)
ob: RJTT 190930Z 24012KT 190V250 9999 FEW030 12/M01 Q1013 NOSIG RMK 1CU030 A2993
cycle: 9

Station Type Date Time Source
RJTT TAF 2018/12/19 06:31 UTC NOAA

TAF RJTT 190511Z 1906/2012 23013KT 9999 FEW030
BECMG 1913/1915 25008KT
BECMG 2000/2003 17008KT


Example: see airport list